Time;durP1;ratioP1;P1;durP2;ratioP2;P2;SDS_P1;SDS_P2;PMS_P1;PMS_P2;Temp;Humidity;BMP_temperature;BMP_pressure;BME280_temperature;BME280_humidity;BME280_pressure;Samples;Min_cycle;Max_cycle;Signal;HPM_P1;HPM_P2
2023/12/05 00:01:15;;;;;;;;;;;-3.90;99.90;;;;;;2586148;54;20785;31
2023/12/05 00:03:48;;;;;;;;;;;-3.90;99.90;;;;;;2604422;46;20731;31
2023/12/05 00:06:21;;;;;;;;;;;-3.90;99.90;;;;;;2585646;54;20774;31
2023/12/05 00:08:55;;;;;;;;;;;-4.00;99.90;;;;;;2604614;46;21141;31
2023/12/05 00:11:28;;;;;;;;;;;-4.10;99.90;;;;;;2604228;46;19940;31
2023/12/05 00:14:01;;;;;;;;;;;-3.90;99.90;;;;;;2585732;54;20680;31
2023/12/05 00:16:33;;;;;;;;;;;-4.10;99.90;;;;;;2585690;54;20779;31
2023/12/05 00:19:06;;;;;;;;;;;-4.10;99.90;;;;;;2683612;39;21021;31
2023/12/05 00:21:39;;;;;;;;;;;-4.20;99.90;;;;;;2604035;47;20438;31
2023/12/05 00:24:14;;;;;;;;;;;-4.00;99.90;;;;;;2585704;54;20021;31
2023/12/05 00:26:47;;;;;;;;;;;-3.90;99.90;;;;;;2585948;54;19954;31
2023/12/05 00:29:20;;;;;;;;;;;-6.90;99.90;;;;;;2585693;54;20734;31
2023/12/05 00:31:53;;;;;;;;;;;-4.30;99.90;;;;;;2604549;46;19942;31
2023/12/05 00:34:25;;;;;;;;;;;-7.00;99.90;;;;;;2585880;54;20798;31
2023/12/05 00:37:00;;;;;;;;;;;-2.20;99.90;;;;;;2585910;54;20884;31
2023/12/05 00:39:36;;;;;;;;;;;-4.40;99.90;;;;;;2683681;39;20304;31
2023/12/05 00:42:09;;;;;;;;;;;-4.30;99.90;;;;;;2683809;39;21203;31
2023/12/05 00:44:42;;;;;;;;;;;-4.40;99.90;;;;;;2585742;54;20016;31
2023/12/05 00:47:15;;;;;;;;;;;-6.40;99.90;;;;;;2585975;54;19946;31
2023/12/05 00:49:48;;;;;;;;;;;-4.30;99.90;;;;;;2585338;54;19934;31
2023/12/05 00:52:21;;;;;;;;;;;-7.00;99.90;;;;;;2585806;54;20740;31
2023/12/05 00:54:57;;;;;;;;;;;-4.40;99.90;;;;;;2585670;54;20761;31
2023/12/05 00:57:30;;;;;;;;;;;-4.40;99.90;;;;;;2585488;54;19949;31
2023/12/05 01:00:04;;;;;;;;;;;-7.40;99.90;;;;;;2683296;39;20332;31
2023/12/05 01:02:37;;;;;;;;;;;-4.30;99.90;;;;;;2604200;46;20840;31
2023/12/05 01:05:12;;;;;;;;;;;-4.50;99.90;;;;;;2585670;54;19957;31
2023/12/05 01:07:46;;;;;;;;;;;-2.50;99.90;;;;;;2585459;54;20835;31
2023/12/05 01:10:21;;;;;;;;;;;-4.60;99.90;;;;;;2585776;54;19940;31
2023/12/05 01:12:53;;;;;;;;;;;-4.60;99.90;;;;;;2585751;54;20683;31
2023/12/05 01:15:26;;;;;;;;;;;-4.60;99.90;;;;;;2603959;46;20812;31
2023/12/05 01:17:59;;;;;;;;;;;-4.60;99.90;;;;;;2585528;54;20680;31
2023/12/05 01:20:32;;;;;;;;;;;-4.60;99.90;;;;;;2603707;46;20760;31
2023/12/05 01:23:04;;;;;;;;;;;-4.70;99.90;;;;;;2683520;39;20280;31
2023/12/05 01:25:40;;;;;;;;;;;-4.40;99.90;;;;;;2585901;54;21052;31
2023/12/05 01:28:13;;;;;;;;;;;-4.70;99.90;;;;;;2585728;54;20797;31
2023/12/05 01:30:45;;;;;;;;;;;-4.90;99.90;;;;;;2603425;46;20731;31
2023/12/05 01:33:20;;;;;;;;;;;-4.70;99.90;;;;;;2585655;54;19964;31
2023/12/05 01:35:54;;;;;;;;;;;-4.70;99.90;;;;;;2585524;54;20435;31
2023/12/05 01:38:27;;;;;;;;;;;-4.30;99.90;;;;;;2585370;54;20784;31
2023/12/05 01:41:02;;;;;;;;;;;-4.70;99.90;;;;;;2585848;54;20860;31
2023/12/05 01:43:34;;;;;;;;;;;-4.70;99.90;;;;;;2603999;46;20853;31
2023/12/05 01:46:07;;;;;;;;;;;-4.80;99.90;;;;;;2585845;54;20736;31
2023/12/05 01:48:39;;;;;;;;;;;-4.80;99.90;;;;;;2585359;54;19947;31
2023/12/05 01:51:14;;;;;;;;;;;-4.50;99.90;;;;;;2585504;54;19938;31
2023/12/05 01:53:48;;;;;;;;;;;-7.90;99.90;;;;;;2585311;54;20819;31
2023/12/05 01:56:24;;;;;;;;;;;-2.00;99.90;;;;;;2585209;54;20852;31
2023/12/05 01:58:57;;;;;;;;;;;-4.90;99.90;;;;;;2585626;54;20761;31
2023/12/05 02:01:30;;;;;;;;;;;-2.70;99.90;;;;;;2754477;31;22511;31
2023/12/05 02:04:04;;;;;;;;;;;-4.70;99.90;;;;;;2585070;54;20788;31
2023/12/05 02:06:37;;;;;;;;;;;-2.60;99.90;;;;;;2604021;47;19934;31
2023/12/05 02:09:09;;;;;;;;;;;-7.70;99.90;;;;;;2683582;39;22226;31
2023/12/05 02:11:46;;;;;;;;;;;-4.60;99.90;;;;;;2585519;54;20826;31
2023/12/05 02:14:19;;;;;;;;;;;-5.00;99.90;;;;;;2603795;47;20773;31
2023/12/05 02:16:53;;;;;;;;;;;-5.00;99.90;;;;;;2585155;54;20849;31
2023/12/05 02:19:32;;;;;;;;;;;-4.90;99.90;;;;;;2585398;54;19935;31
2023/12/05 02:22:06;;;;;;;;;;;-5.00;99.90;;;;;;2585640;54;20767;31
2023/12/05 02:24:41;;;;;;;;;;;-5.00;99.90;;;;;;2603871;47;19942;31
2023/12/05 02:27:19;;;;;;;;;;;-1.70;99.90;;;;;;2585367;54;20772;31
2023/12/05 02:29:54;;;;;;;;;;;-2.00;99.90;;;;;;2585431;54;20767;31
2023/12/05 02:32:27;;;;;;;;;;;-5.20;99.90;;;;;;2683478;39;22100;31
2023/12/05 02:35:00;;;;;;;;;;;-4.70;99.90;;;;;;2585080;54;20768;31
2023/12/05 02:37:34;;;;;;;;;;;-5.00;99.90;;;;;;2585294;54;21064;31
2023/12/05 02:40:10;;;;;;;;;;;-5.10;99.90;;;;;;2585225;54;19935;31
2023/12/05 02:45:16;;;;;;;;;;;-5.10;99.90;;;;;;2586134;54;19942;31
2023/12/05 02:47:49;;;;;;;;;;;-5.10;99.90;;;;;;2586087;54;20788;31
2023/12/05 02:50:21;;;;;;;;;;;-5.10;99.90;;;;;;2684243;39;20979;31
2023/12/05 02:52:54;;;;;;;;;;;-5.10;99.90;;;;;;2585889;54;20731;31
2023/12/05 02:55:27;;;;;;;;;;;-5.10;99.90;;;;;;2586054;54;20688;31
2023/12/05 02:57:59;;;;;;;;;;;-5.10;99.90;;;;;;2604348;46;20737;31
2023/12/05 03:00:34;;;;;;;;;;;-5.10;99.90;;;;;;2605104;46;20829;31
2023/12/05 03:03:06;;;;;;;;;;;-2.00;99.90;;;;;;2604353;46;20011;31
2023/12/05 03:05:39;;;;;;;;;;;-5.40;99.90;;;;;;2585665;54;20914;31
2023/12/05 03:08:13;;;;;;;;;;;-2.00;99.90;;;;;;2604837;46;20799;31
2023/12/05 03:10:47;;;;;;;;;;;-5.30;99.90;;;;;;2585992;54;19953;31
2023/12/05 03:13:31;;;;;;;;;;;-5.10;99.90;;;;;;2586072;54;19957;31
2023/12/05 03:16:08;;;;;;;;;;;-5.20;99.90;;;;;;2585816;54;19939;31
2023/12/05 03:18:41;;;;;;;;;;;-2.60;99.90;;;;;;2586070;54;20902;31
2023/12/05 03:21:17;;;;;;;;;;;-5.20;99.90;;;;;;2586191;54;22126;31
2023/12/05 03:23:50;;;;;;;;;;;-5.20;99.90;;;;;;2604474;46;22623;31
2023/12/05 03:26:22;;;;;;;;;;;-5.20;99.90;;;;;;2586194;54;22113;31
2023/12/05 03:28:54;;;;;;;;;;;-5.30;99.90;;;;;;2604464;46;20820;31
2023/12/05 03:31:29;;;;;;;;;;;-2.50;99.90;;;;;;2604625;46;20666;31
2023/12/05 03:34:02;;;;;;;;;;;-5.20;99.90;;;;;;2586051;54;20870;31
2023/12/05 03:36:36;;;;;;;;;;;-5.30;99.90;;;;;;2604231;46;19934;31
2023/12/05 03:39:10;;;;;;;;;;;-5.20;99.90;;;;;;2604583;46;20023;31
2023/12/05 03:41:46;;;;;;;;;;;-5.60;99.90;;;;;;2604417;46;20774;31
2023/12/05 03:44:20;;;;;;;;;;;-2.50;99.90;;;;;;2585622;54;19946;31
2023/12/05 03:46:56;;;;;;;;;;;-5.20;99.90;;;;;;2585829;54;20005;31
2023/12/05 03:49:29;;;;;;;;;;;-8.00;99.90;;;;;;2585737;54;20708;31
2023/12/05 03:52:03;;;;;;;;;;;-5.10;99.90;;;;;;2585704;54;20798;31
2023/12/05 03:54:34;;;;;;;;;;;-5.20;99.90;;;;;;2604128;46;22424;31
2023/12/05 03:57:09;;;;;;;;;;;-4.90;99.90;;;;;;2586001;54;19934;31
2023/12/05 03:59:42;;;;;;;;;;;-5.30;99.90;;;;;;2683725;39;21201;31
2023/12/05 04:02:17;;;;;;;;;;;-5.10;99.90;;;;;;2586185;54;21747;31
2023/12/05 04:04:49;;;;;;;;;;;-5.20;99.90;;;;;;2754961;31;21073;31
2023/12/05 04:07:23;;;;;;;;;;;-5.10;99.90;;;;;;2585836;54;19965;31
2023/12/05 04:09:57;;;;;;;;;;;-5.20;99.90;;;;;;2604285;46;20020;31
2023/12/05 04:12:30;;;;;;;;;;;-8.20;99.90;;;;;;2585620;54;20665;31
2023/12/05 04:15:04;;;;;;;;;;;-5.10;99.90;;;;;;2585580;54;19941;31
2023/12/05 04:17:40;;;;;;;;;;;-5.20;99.90;;;;;;2585389;54;20870;31
2023/12/05 04:20:14;;;;;;;;;;;-5.20;99.90;;;;;;2585795;54;20800;31
2023/12/05 04:22:47;;;;;;;;;;;-5.10;99.90;;;;;;2585977;54;21065;31
2023/12/05 04:25:21;;;;;;;;;;;-5.10;99.90;;;;;;2585865;54;19940;31
2023/12/05 04:27:55;;;;;;;;;;;-5.00;99.90;;;;;;2585556;54;20385;31
2023/12/05 04:30:28;;;;;;;;;;;-7.60;99.90;;;;;;2585602;54;19962;31
2023/12/05 04:33:04;;;;;;;;;;;-7.30;99.90;;;;;;2585645;54;20804;31
2023/12/05 04:35:35;;;;;;;;;;;-5.00;99.90;;;;;;2604319;46;20798;31
2023/12/05 04:38:08;;;;;;;;;;;-5.00;99.90;;;;;;2585649;54;20674;31
2023/12/05 04:40:42;;;;;;;;;;;-4.90;99.90;;;;;;2585868;54;19935;31
2023/12/05 04:43:13;;;;;;;;;;;-4.80;99.90;;;;;;2603964;46;19960;31
2023/12/05 04:45:46;;;;;;;;;;;-4.90;99.90;;;;;;2604095;46;20699;31
2023/12/05 04:48:22;;;;;;;;;;;-4.90;99.90;;;;;;2585641;54;20830;31
2023/12/05 04:50:55;;;;;;;;;;;-4.90;99.90;;;;;;2585807;54;20879;31
2023/12/05 04:53:26;;;;;;;;;;;-5.00;99.90;;;;;;2604030;46;21844;31
2023/12/05 04:55:59;;;;;;;;;;;-4.90;99.90;;;;;;2585445;54;19934;31
2023/12/05 04:58:32;;;;;;;;;;;-5.10;99.90;;;;;;2585731;54;19957;31
2023/12/05 05:01:06;;;;;;;;;;;-4.60;99.90;;;;;;2604332;46;19934;31
2023/12/05 05:03:40;;;;;;;;;;;-4.90;99.90;;;;;;2683876;39;22283;31
2023/12/05 05:06:15;;;;;;;;;;;-5.00;99.90;;;;;;2604070;46;20428;31
2023/12/05 05:08:48;;;;;;;;;;;-7.80;99.90;;;;;;2603831;46;20794;31
2023/12/05 05:11:20;;;;;;;;;;;-5.00;99.90;;;;;;2585761;54;21105;31
2023/12/05 05:13:52;;;;;;;;;;;-5.00;99.90;;;;;;2603896;46;20705;31
2023/12/05 05:16:30;;;;;;;;;;;-5.00;99.90;;;;;;2585859;54;19934;31
2023/12/05 05:19:07;;;;;;;;;;;-5.00;99.90;;;;;;2585142;54;20802;31
2023/12/05 05:21:39;;;;;;;;;;;-2.70;99.90;;;;;;2604068;46;21056;31
2023/12/05 05:24:12;;;;;;;;;;;-4.90;99.90;;;;;;2604443;46;21867;31
2023/12/05 05:26:45;;;;;;;;;;;-5.00;99.90;;;;;;2683692;39;20981;31
2023/12/05 05:29:18;;;;;;;;;;;-4.90;99.90;;;;;;2604325;46;20794;31
2023/12/05 05:31:51;;;;;;;;;;;-5.00;99.90;;;;;;2585660;54;20762;31
2023/12/05 05:34:26;;;;;;;;;;;-4.80;99.90;;;;;;2585203;54;19935;31
2023/12/05 05:36:59;;;;;;;;;;;-4.80;99.90;;;;;;2604322;46;20766;31
2023/12/05 05:39:33;;;;;;;;;;;-4.90;99.90;;;;;;2585727;54;19938;31
2023/12/05 05:42:07;;;;;;;;;;;-4.80;99.90;;;;;;2585607;54;20021;31
2023/12/05 05:44:41;;;;;;;;;;;-4.90;99.90;;;;;;2604140;46;19940;31
2023/12/05 05:47:14;;;;;;;;;;;-4.80;99.90;;;;;;2603802;46;20903;31
2023/12/05 05:49:49;;;;;;;;;;;-4.90;99.90;;;;;;2585443;54;19934;31
2023/12/05 05:52:22;;;;;;;;;;;-4.60;99.90;;;;;;2603886;46;21074;31
2023/12/05 05:54:56;;;;;;;;;;;-4.90;99.90;;;;;;2585367;54;20676;31
2023/12/05 05:57:30;;;;;;;;;;;-4.80;99.90;;;;;;2585307;54;20827;31
2023/12/05 06:00:04;;;;;;;;;;;-2.10;99.90;;;;;;2585600;54;20748;31
2023/12/05 06:02:37;;;;;;;;;;;-4.90;99.90;;;;;;2585734;54;20061;31
2023/12/05 06:05:13;;;;;;;;;;;-5.00;99.90;;;;;;2585682;54;20674;31
2023/12/05 06:07:46;;;;;;;;;;;-4.90;99.90;;;;;;2585473;54;19934;31
2023/12/05 06:10:19;;;;;;;;;;;-7.10;99.90;;;;;;2604321;47;21059;31
2023/12/05 06:12:53;;;;;;;;;;;-5.00;99.90;;;;;;2603909;47;19943;31
2023/12/05 06:15:27;;;;;;;;;;;-2.60;99.90;;;;;;2585205;54;20623;31
2023/12/05 06:18:00;;;;;;;;;;;-5.00;99.90;;;;;;2585755;54;20795;31
2023/12/05 06:20:35;;;;;;;;;;;-5.00;99.90;;;;;;2702920;39;20962;31
2023/12/05 06:23:07;;;;;;;;;;;-5.00;99.90;;;;;;2586226;54;20734;31
2023/12/05 06:25:40;;;;;;;;;;;-5.00;99.90;;;;;;2604840;46;19940;31
2023/12/05 06:28:12;;;;;;;;;;;-4.80;99.90;;;;;;2604792;46;22243;31
2023/12/05 06:30:46;;;;;;;;;;;-5.10;99.90;;;;;;2604726;46;19941;31
2023/12/05 06:33:17;;;;;;;;;;;-7.70;99.90;;;;;;2605066;46;20045;31
2023/12/05 06:35:52;;;;;;;;;;;-5.10;99.90;;;;;;2604835;46;22272;31
2023/12/05 06:38:24;;;;;;;;;;;-4.80;99.90;;;;;;2586437;54;20801;31
2023/12/05 06:40:57;;;;;;;;;;;-5.20;99.90;;;;;;2604536;46;19957;31
2023/12/05 06:43:30;;;;;;;;;;;-5.50;99.90;;;;;;2702830;39;22317;31
2023/12/05 06:46:01;;;;;;;;;;;-5.00;99.90;;;;;;2585952;54;19934;31
2023/12/05 06:48:33;;;;;;;;;;;-5.20;99.90;;;;;;2585946;54;19943;31
2023/12/05 06:51:09;;;;;;;;;;;-3.00;99.90;;;;;;2604548;46;19941;31
2023/12/05 06:53:42;;;;;;;;;;;-8.50;99.90;;;;;;2585799;54;20818;31
2023/12/05 06:56:21;;;;;;;;;;;-5.40;99.90;;;;;;2604671;46;21062;31
2023/12/05 06:58:54;;;;;;;;;;;-5.40;99.90;;;;;;2604549;46;20673;31
2023/12/05 07:01:27;;;;;;;;;;;-5.40;99.90;;;;;;2586075;54;19934;31
2023/12/05 07:04:00;;;;;;;;;;;-8.40;99.90;;;;;;2586164;54;19935;31
2023/12/05 07:06:37;;;;;;;;;;;-5.10;99.90;;;;;;2585955;54;19958;31
2023/12/05 07:09:10;;;;;;;;;;;-5.60;99.90;;;;;;2586293;54;20996;31
2023/12/05 07:11:42;;;;;;;;;;;-5.40;99.90;;;;;;2585751;54;20704;31
2023/12/05 07:14:15;;;;;;;;;;;-5.30;99.90;;;;;;2586215;54;19941;31
2023/12/05 07:16:48;;;;;;;;;;;-5.10;99.90;;;;;;2585890;54;20680;31
2023/12/05 07:19:19;;;;;;;;;;;-5.10;99.90;;;;;;2586154;54;19934;31
2023/12/05 07:21:58;;;;;;;;;;;-4.90;99.90;;;;;;2604560;46;19934;31
2023/12/05 07:24:30;;;;;;;;;;;-4.80;99.90;;;;;;2604712;46;20792;31
2023/12/05 07:27:03;;;;;;;;;;;-4.80;99.90;;;;;;2585988;54;19934;31
2023/12/05 07:29:35;;;;;;;;;;;-4.30;99.90;;;;;;2604070;46;20674;31
2023/12/05 07:32:09;;;;;;;;;;;-4.00;99.90;;;;;;2586167;54;20687;31
2023/12/05 07:34:42;;;;;;;;;;;-3.50;99.90;;;;;;2585532;54;19934;31
2023/12/05 07:37:18;;;;;;;;;;;-3.20;99.90;;;;;;2683984;39;20950;31
2023/12/05 07:39:50;;;;;;;;;;;-2.80;99.90;;;;;;2684250;39;20910;31
2023/12/05 07:42:23;;;;;;;;;;;-2.30;99.90;;;;;;2585992;54;19941;31
2023/12/05 07:44:56;;;;;;;;;;;-4.60;99.90;;;;;;2585872;54;20725;31
2023/12/05 07:47:29;;;;;;;;;;;-1.50;96.20;;;;;;2683797;39;21347;31
2023/12/05 07:50:02;;;;;;;;;;;-1.20;91.50;;;;;;2585495;54;19939;31
2023/12/05 07:52:38;;;;;;;;;;;-0.70;78.30;;;;;;2604003;46;20745;31
2023/12/05 07:55:15;;;;;;;;;;;-0.70;80.80;;;;;;2604702;46;21910;31
2023/12/05 07:57:48;;;;;;;;;;;-0.60;80.40;;;;;;2604470;46;19941;31
2023/12/05 08:00:21;;;;;;;;;;;-0.40;70.30;;;;;;2585999;54;20841;31
2023/12/05 08:02:54;;;;;;;;;;;1.00;64.90;;;;;;2585486;54;20681;31
2023/12/05 08:05:28;;;;;;;;;;;-0.20;66.50;;;;;;2585753;54;19934;31
2023/12/05 08:08:05;;;;;;;;;;;-0.10;60.60;;;;;;2586062;54;19939;31
2023/12/05 08:10:38;;;;;;;;;;;0.10;56.60;;;;;;2586025;54;19934;31
2023/12/05 08:13:11;;;;;;;;;;;-0.50;62.70;;;;;;2586203;54;21043;31
2023/12/05 08:15:45;;;;;;;;;;;-0.60;63.00;;;;;;2585839;54;20824;31
2023/12/05 08:18:17;;;;;;;;;;;0.90;66.10;;;;;;2683845;39;20982;31
2023/12/05 08:20:50;;;;;;;;;;;-0.90;72.60;;;;;;2585926;54;20954;31
2023/12/05 08:23:26;;;;;;;;;;;0.70;78.20;;;;;;2702006;39;21018;31
2023/12/05 08:25:59;;;;;;;;;;;-0.90;82.70;;;;;;2585893;54;19934;31
2023/12/05 08:28:32;;;;;;;;;;;-3.80;78.90;;;;;;2603711;46;19934;31
2023/12/05 08:31:06;;;;;;;;;;;-3.20;78.70;;;;;;2585225;54;19939;31
2023/12/05 08:33:39;;;;;;;;;;;0.50;76.00;;;;;;2604212;46;19950;31
2023/12/05 08:36:13;;;;;;;;;;;-0.70;73.50;;;;;;2585655;54;19950;31
2023/12/05 08:38:48;;;;;;;;;;;-0.90;70.40;;;;;;2604378;46;20787;31
2023/12/05 08:41:21;;;;;;;;;;;-0.90;77.10;;;;;;2585460;54;19958;31
2023/12/05 08:43:54;;;;;;;;;;;-3.50;73.20;;;;;;2585489;54;20823;31
2023/12/05 08:46:27;;;;;;;;;;;-1.30;79.90;;;;;;2603909;46;20947;31
2023/12/05 08:49:00;;;;;;;;;;;-1.50;78.40;;;;;;2585646;54;19934;31
2023/12/05 08:51:35;;;;;;;;;;;-1.50;82.70;;;;;;2603804;46;19934;31
2023/12/05 08:54:12;;;;;;;;;;;-1.60;87.80;;;;;;2584891;54;19939;31
2023/12/05 08:56:45;;;;;;;;;;;-1.50;91.00;;;;;;2585725;54;20714;31
2023/12/05 08:59:23;;;;;;;;;;;-1.70;91.40;;;;;;2585679;54;19934;31
2023/12/05 09:01:57;;;;;;;;;;;0.10;92.10;;;;;;2604097;46;19934;31
2023/12/05 09:04:33;;;;;;;;;;;0.10;93.30;;;;;;2585509;54;20921;31
2023/12/05 09:07:06;;;;;;;;;;;-2.10;93.70;;;;;;2584872;54;19938;31
2023/12/05 09:09:43;;;;;;;;;;;-2.20;95.80;;;;;;2585765;54;19935;31
2023/12/05 09:12:18;;;;;;;;;;;-4.80;96.50;;;;;;2604384;46;19985;31
2023/12/05 09:14:50;;;;;;;;;;;-1.90;96.40;;;;;;2702116;39;21014;31
2023/12/05 09:17:22;;;;;;;;;;;-2.10;97.10;;;;;;2683996;39;20939;31
2023/12/05 09:19:55;;;;;;;;;;;-2.10;97.70;;;;;;2585880;54;20817;31
2023/12/05 09:22:28;;;;;;;;;;;-2.00;97.60;;;;;;2585694;54;19934;31
2023/12/05 09:25:04;;;;;;;;;;;-2.00;96.30;;;;;;2585691;54;19941;31
2023/12/05 09:27:37;;;;;;;;;;;-1.90;98.10;;;;;;2585232;54;20687;31
2023/12/05 09:30:10;;;;;;;;;;;-1.90;97.60;;;;;;2585095;54;19941;31
2023/12/05 09:32:43;;;;;;;;;;;-1.80;99.80;;;;;;2585240;54;19935;31
2023/12/05 09:35:18;;;;;;;;;;;-1.70;97.30;;;;;;2603861;46;20926;31
2023/12/05 09:37:52;;;;;;;;;;;-1.90;96.20;;;;;;2585595;54;19934;31
2023/12/05 09:40:31;;;;;;;;;;;-1.80;96.80;;;;;;2604185;46;19941;31
2023/12/05 09:43:04;;;;;;;;;;;-1.60;98.30;;;;;;2585578;54;20673;31
2023/12/05 09:45:39;;;;;;;;;;;-1.70;97.40;;;;;;2585283;54;20900;31
2023/12/05 09:48:12;;;;;;;;;;;0.90;99.90;;;;;;2585354;54;21803;31
2023/12/05 09:50:45;;;;;;;;;;;-1.80;98.40;;;;;;2603726;46;19942;31
2023/12/05 09:53:17;;;;;;;;;;;-2.50;99.30;;;;;;2604138;46;21050;31
2023/12/05 09:55:53;;;;;;;;;;;-1.70;99.90;;;;;;2585562;54;19935;31
2023/12/05 09:58:26;;;;;;;;;;;-4.50;99.00;;;;;;2585149;54;20831;31
2023/12/05 10:01:02;;;;;;;;;;;-1.60;99.90;;;;;;2585486;54;19935;31
2023/12/05 10:03:35;;;;;;;;;;;-1.20;99.90;;;;;;2603830;46;19935;31
2023/12/05 10:06:08;;;;;;;;;;;-1.20;99.90;;;;;;2585575;54;20810;31
2023/12/05 10:08:40;;;;;;;;;;;-1.40;99.90;;;;;;2585661;54;21910;31
2023/12/05 10:11:15;;;;;;;;;;;-1.40;99.90;;;;;;2585568;54;21173;31
2023/12/05 10:13:48;;;;;;;;;;;-1.30;99.90;;;;;;2585385;54;19990;31
2023/12/05 10:16:22;;;;;;;;;;;-1.20;99.90;;;;;;2585156;54;19934;31
2023/12/05 10:18:55;;;;;;;;;;;-1.10;99.70;;;;;;2585519;54;20729;31
2023/12/05 10:21:31;;;;;;;;;;;-1.10;98.60;;;;;;2584886;54;20823;31
2023/12/05 10:24:04;;;;;;;;;;;0.20;99.90;;;;;;2603531;47;19939;31
2023/12/05 10:26:47;;;;;;;;;;;-1.20;98.50;;;;;;2585227;54;19961;31
2023/12/05 10:29:17;;;;;;;;;;;-0.80;98.60;;;;;;2585355;54;19997;31
2023/12/05 10:31:52;;;;;;;;;;;-0.80;99.90;;;;;;2603524;47;19939;31
2023/12/05 10:34:25;;;;;;;;;;;-4.10;99.20;;;;;;2584850;54;19946;31
2023/12/05 10:37:03;;;;;;;;;;;-0.90;99.50;;;;;;2603583;47;20892;31
2023/12/05 10:39:37;;;;;;;;;;;-1.00;98.70;;;;;;2585532;54;20779;31
2023/12/05 10:42:15;;;;;;;;;;;-0.80;99.50;;;;;;2584971;54;20662;31
2023/12/05 10:44:48;;;;;;;;;;;-0.70;99.20;;;;;;2585216;54;19934;31
2023/12/05 10:47:21;;;;;;;;;;;-3.20;96.40;;;;;;2603734;47;19989;31
2023/12/05 10:49:55;;;;;;;;;;;-0.50;99.40;;;;;;2683439;39;22182;31
2023/12/05 10:52:31;;;;;;;;;;;-0.30;98.60;;;;;;2585285;54;19939;31
2023/12/05 10:55:04;;;;;;;;;;;-0.30;98.50;;;;;;2584987;54;19934;31
2023/12/05 10:57:39;;;;;;;;;;;-0.30;99.10;;;;;;2584751;54;20762;31
2023/12/05 11:00:13;;;;;;;;;;;-0.40;99.70;;;;;;2585338;54;21900;31
2023/12/05 11:02:48;;;;;;;;;;;-0.40;98.50;;;;;;2585560;54;19935;31
2023/12/05 11:05:21;;;;;;;;;;;-0.10;99.00;;;;;;2585495;54;20866;31
2023/12/05 11:07:54;;;;;;;;;;;-0.20;96.90;;;;;;2585755;54;19935;31
2023/12/05 11:10:27;;;;;;;;;;;0.10;93.00;;;;;;2702518;39;20974;31
2023/12/05 11:13:03;;;;;;;;;;;0.00;96.10;;;;;;2586114;54;20887;31
2023/12/05 11:15:38;;;;;;;;;;;0.10;97.10;;;;;;2604191;46;20832;31
2023/12/05 11:18:14;;;;;;;;;;;0.20;94.90;;;;;;2604369;46;20887;31
2023/12/05 11:20:54;;;;;;;;;;;0.10;93.60;;;;;;2585667;54;20846;31
2023/12/05 11:23:36;;;;;;;;;;;0.20;91.50;;;;;;2585922;54;20732;31
2023/12/05 11:26:12;;;;;;;;;;;0.40;91.20;;;;;;2604252;46;20830;31
2023/12/05 11:28:49;;;;;;;;;;;0.30;94.30;;;;;;2586090;54;19938;31
2023/12/05 11:31:24;;;;;;;;;;;0.50;92.00;;;;;;2585635;54;19942;31
2023/12/05 11:34:15;;;;;;;;;;;0.30;90.10;;;;;;2586227;54;19950;31
2023/12/05 11:36:52;;;;;;;;;;;0.30;89.50;;;;;;2585886;54;19938;31
2023/12/05 11:39:26;;;;;;;;;;;0.60;89.80;;;;;;2600081;46;19935;31
2023/12/05 11:42:14;;;;;;;;;;;1.30;90.10;;;;;;2585875;54;20678;31
2023/12/05 11:44:50;;;;;;;;;;;0.30;87.90;;;;;;2586069;54;19993;31
2023/12/05 11:47:25;;;;;;;;;;;0.20;90.60;;;;;;2585895;54;19934;31
2023/12/05 11:50:00;;;;;;;;;;;0.10;86.80;;;;;;2585701;54;20682;31
2023/12/05 11:52:39;;;;;;;;;;;0.30;90.70;;;;;;2604781;46;21050;31
2023/12/05 11:55:13;;;;;;;;;;;0.20;90.50;;;;;;2684140;39;20895;31
2023/12/05 11:57:48;;;;;;;;;;;0.30;91.00;;;;;;2585964;54;19957;31
2023/12/05 12:00:25;;;;;;;;;;;0.60;83.40;;;;;;2585745;54;20802;31
2023/12/05 12:02:59;;;;;;;;;;;0.30;90.80;;;;;;2604001;46;19960;31
2023/12/05 12:05:32;;;;;;;;;;;0.20;90.20;;;;;;2604112;46;20903;31
2023/12/05 12:08:05;;;;;;;;;;;0.20;87.50;;;;;;2586014;54;19935;31
2023/12/05 12:10:39;;;;;;;;;;;0.50;90.80;;;;;;2585678;54;19943;31
2023/12/05 12:13:11;;;;;;;;;;;0.40;86.60;;;;;;2773601;31;22355;31
2023/12/05 12:15:47;;;;;;;;;;;0.60;91.10;;;;;;2585372;54;19942;31
2023/12/05 12:18:26;;;;;;;;;;;0.50;89.20;;;;;;2603943;46;20689;31
2023/12/05 12:21:10;;;;;;;;;;;0.30;89.10;;;;;;2586061;54;21182;31
2023/12/05 12:23:42;;;;;;;;;;;0.00;90.60;;;;;;2586150;54;21035;31
2023/12/05 12:26:15;;;;;;;;;;;0.20;90.40;;;;;;2585862;54;19935;31
2023/12/05 12:28:49;;;;;;;;;;;0.50;90.50;;;;;;2585734;54;19935;31
2023/12/05 12:31:28;;;;;;;;;;;3.40;90.90;;;;;;2585462;54;20925;31
2023/12/05 12:34:02;;;;;;;;;;;0.00;89.00;;;;;;2585593;54;20766;31
2023/12/05 12:36:37;;;;;;;;;;;0.20;90.30;;;;;;2604461;46;19935;31
2023/12/05 12:39:10;;;;;;;;;;;0.30;90.30;;;;;;2604207;46;21185;31
2023/12/05 12:41:44;;;;;;;;;;;0.10;90.70;;;;;;2585572;54;19961;31
2023/12/05 12:44:18;;;;;;;;;;;-2.00;90.20;;;;;;2585365;54;20758;31
2023/12/05 12:46:54;;;;;;;;;;;0.10;87.50;;;;;;2585830;54;19938;31
2023/12/05 12:49:27;;;;;;;;;;;-2.50;85.90;;;;;;2585606;54;20812;31
2023/12/05 12:51:59;;;;;;;;;;;0.00;87.20;;;;;;2585712;54;20814;31
2023/12/05 12:54:33;;;;;;;;;;;0.00;84.70;;;;;;2585655;54;19939;31
2023/12/05 12:57:06;;;;;;;;;;;0.20;85.80;;;;;;2585955;54;20825;31
2023/12/05 12:59:39;;;;;;;;;;;-0.10;85.40;;;;;;2604195;46;19941;31
2023/12/05 13:02:14;;;;;;;;;;;-0.10;86.10;;;;;;2585704;54;19935;31
2023/12/05 13:04:48;;;;;;;;;;;0.00;88.30;;;;;;2585617;54;20817;31
2023/12/05 13:07:24;;;;;;;;;;;-0.20;90.80;;;;;;2585676;54;21071;31
2023/12/05 13:09:57;;;;;;;;;;;-0.20;90.80;;;;;;2585573;54;20853;31
2023/12/05 13:12:29;;;;;;;;;;;-0.30;91.20;;;;;;2754818;31;21079;31
2023/12/05 13:15:02;;;;;;;;;;;-0.20;91.90;;;;;;2603846;46;20790;31
2023/12/05 13:17:39;;;;;;;;;;;-0.20;91.80;;;;;;2585435;54;20695;31
2023/12/05 13:20:14;;;;;;;;;;;-0.20;91.10;;;;;;2604312;46;20733;31
2023/12/05 13:22:48;;;;;;;;;;;-0.20;91.70;;;;;;2585564;54;19935;31
2023/12/05 13:25:22;;;;;;;;;;;-0.40;91.40;;;;;;2603935;46;20697;31
2023/12/05 13:28:06;;;;;;;;;;;-0.30;92.00;;;;;;2585290;54;20821;31
2023/12/05 13:30:39;;;;;;;;;;;-0.30;93.20;;;;;;2585226;54;19935;31
2023/12/05 13:33:15;;;;;;;;;;;-0.20;94.10;;;;;;2585637;54;19934;31
2023/12/05 13:35:49;;;;;;;;;;;0.00;95.60;;;;;;2603969;46;20824;31
2023/12/05 13:38:22;;;;;;;;;;;-0.50;97.10;;;;;;2585867;54;21767;31
2023/12/05 13:40:54;;;;;;;;;;;-0.50;98.00;;;;;;2683568;39;20958;31
2023/12/05 13:43:28;;;;;;;;;;;-0.50;98.80;;;;;;2585722;54;20805;31
2023/12/05 13:46:00;;;;;;;;;;;-0.50;99.70;;;;;;2585803;54;22291;31
2023/12/05 13:48:35;;;;;;;;;;;-0.60;99.90;;;;;;2585651;54;19934;31
2023/12/05 13:51:08;;;;;;;;;;;-0.30;99.90;;;;;;2585310;54;19989;31
2023/12/05 13:53:41;;;;;;;;;;;-0.40;99.90;;;;;;2585270;54;20856;31
2023/12/05 13:56:17;;;;;;;;;;;-0.70;99.90;;;;;;2585601;54;19938;31
2023/12/05 13:58:50;;;;;;;;;;;-0.50;99.90;;;;;;2585720;54;19993;31
2023/12/05 14:01:22;;;;;;;;;;;-0.80;99.90;;;;;;2683702;39;20915;31
2023/12/05 14:03:57;;;;;;;;;;;-0.70;99.90;;;;;;2585254;54;20737;31
2023/12/05 14:06:30;;;;;;;;;;;-0.70;99.90;;;;;;2604182;46;21816;31
2023/12/05 14:09:02;;;;;;;;;;;-0.80;99.90;;;;;;2585473;54;21024;31
2023/12/05 14:11:35;;;;;;;;;;;-0.80;99.90;;;;;;2585517;54;19941;31
2023/12/05 14:14:07;;;;;;;;;;;-0.50;99.90;;;;;;2702070;39;20944;31
2023/12/05 14:16:39;;;;;;;;;;;-0.80;99.90;;;;;;2585266;54;19938;31
2023/12/05 14:19:15;;;;;;;;;;;-0.60;99.90;;;;;;2604038;47;19993;31
2023/12/05 14:21:48;;;;;;;;;;;-0.90;99.90;;;;;;2585348;54;19935;31
2023/12/05 14:24:21;;;;;;;;;;;2.50;99.90;;;;;;2585299;54;19934;31
2023/12/05 14:26:54;;;;;;;;;;;0.90;99.90;;;;;;2603851;47;19941;31
2023/12/05 14:29:27;;;;;;;;;;;-3.70;99.90;;;;;;2585214;54;20794;31
2023/12/05 14:32:00;;;;;;;;;;;-0.90;99.90;;;;;;2585319;54;19956;31
2023/12/05 14:34:37;;;;;;;;;;;2.40;99.90;;;;;;2585587;54;19985;31
2023/12/05 14:37:10;;;;;;;;;;;-3.70;99.90;;;;;;2585157;54;20702;31
2023/12/05 14:39:43;;;;;;;;;;;-0.90;99.90;;;;;;2586023;54;20012;31
2023/12/05 14:42:16;;;;;;;;;;;-0.70;99.90;;;;;;2605203;46;21066;31
2023/12/05 14:44:50;;;;;;;;;;;-0.90;99.90;;;;;;2586239;54;19934;31
2023/12/05 14:47:24;;;;;;;;;;;-0.70;99.90;;;;;;2586001;54;19942;31
2023/12/05 14:49:59;;;;;;;;;;;-0.80;99.90;;;;;;2586470;54;20783;31
2023/12/05 14:52:33;;;;;;;;;;;-0.90;99.90;;;;;;2604615;46;20873;31
2023/12/05 14:55:07;;;;;;;;;;;-1.00;99.90;;;;;;2604864;46;20785;31
2023/12/05 14:57:40;;;;;;;;;;;-0.90;99.90;;;;;;2604611;46;19941;31
2023/12/05 15:00:13;;;;;;;;;;;-0.90;99.90;;;;;;2604597;46;20012;31
2023/12/05 15:02:46;;;;;;;;;;;-1.00;99.90;;;;;;2586255;54;19939;31
2023/12/05 15:05:20;;;;;;;;;;;-0.70;99.90;;;;;;2586448;54;22271;31
2023/12/05 15:07:53;;;;;;;;;;;-1.00;99.90;;;;;;2604319;46;20758;31
2023/12/05 15:10:25;;;;;;;;;;;-1.00;99.90;;;;;;2586239;54;19935;31
2023/12/05 15:12:57;;;;;;;;;;;-1.00;99.90;;;;;;2586151;54;20706;31